メインページ
METAR-TAF:

METAR-TAF

空港 :

パルマ・デ・マヨルカ空港

パルマ・デ・マリョルカ, スペイン

緯度: 39-33N, 経度: 002-44E, 海抜: 4m

現時点の気象観測

当レポートは28分前の19:00(UTC)に作成
東/北東の風 3kt、北/北東からの間で変化する
気温 24°C
湿度 83%
気圧 1017 hPa
視程10km以上
高度3000ftの雲はほとんどない

METAR: LEPA 181900Z 07003KT 020V080 9999 FEW030 24/21 Q1017 NOSIG

時間: 21:28 (19:28 UTC)

予報

当レポートは2時間28分前の17:00(UTC)に作成
予報は18日の 18時(UTC)から 19日の 18時(UTC)まで有効
東/北東の風 7kt
視程10km以上
高度2000ftの雲は散在している
19日の 06時(UTC)から 19日の 18時(UTC)まで一時的に
高度2000ftの雲は散在している
高度2500ftの雲はほとんどない, 積乱雲.
19日の 11時(UTC)から 19日の 15時(UTC)まで一時的に
南西の風 10kt
確率 40% :
19日の 12時(UTC)から 19日の 18時(UTC)まで一時的に
視程: 4000m
高度2000ftの雲は散在している, 積乱雲.
激しい雷雨, 雨

TAF: LEPA 181700Z 1818/1918 06007KT 9999 SCT020 TX27/1912Z TN20/1906Z TEMPO 1906/1918 SCT020 FEW025CB TEMPO 1911/1915 23010KT PROB40 TEMPO 1912/1918 4000 TSRA SCT020CB

4,000以上の空港の気象観測と天気予報(METAR報とTAF報)

利用可能な観測所は地図上に黄色い丸と赤い丸で示す。

丸の上にカーソルを重ねると観測所名を参照できる。

次にクリックすると気象観測と天気予報を参照できる。

マップの切り替え:黒色「×」印の緑ボタンをクリックして拡大、「-」印の緑ボタンをクリックして縮小、緑色の三角印をクリックして隣りの地図に切り替え


METAR-TAF: